sensor_id;sensor_type;location;lat;lon;timestamp;P1;durP1;ratioP1;P2;durP2;ratioP2
21941;SDS011;11135;54.192;15.670;2023-02-05T00:01:00;7.55;;;0.93;;
21941;SDS011;11135;54.192;15.670;2023-02-05T00:04:14;3.78;;;1.10;;
21941;SDS011;11135;54.192;15.670;2023-02-05T00:07:21;2.38;;;0.90;;
21941;SDS011;11135;54.192;15.670;2023-02-05T00:10:30;1.95;;;0.73;;
21941;SDS011;11135;54.192;15.670;2023-02-05T00:13:36;4.40;;;1.20;;
21941;SDS011;11135;54.192;15.670;2023-02-05T00:16:42;4.30;;;0.70;;
21941;SDS011;11135;54.192;15.670;2023-02-05T00:19:49;5.75;;;0.90;;
21941;SDS011;11135;54.192;15.670;2023-02-05T00:22:54;4.68;;;1.15;;
21941;SDS011;11135;54.192;15.670;2023-02-05T00:26:04;4.75;;;1.27;;
21941;SDS011;11135;54.192;15.670;2023-02-05T00:29:12;3.92;;;1.02;;
21941;SDS011;11135;54.192;15.670;2023-02-05T00:32:19;6.72;;;1.08;;
21941;SDS011;11135;54.192;15.670;2023-02-05T00:35:27;2.42;;;0.90;;
21941;SDS011;11135;54.192;15.670;2023-02-05T00:38:33;1.23;;;0.75;;
21941;SDS011;11135;54.192;15.670;2023-02-05T00:41:43;2.65;;;1.00;;
21941;SDS011;11135;54.192;15.670;2023-02-05T00:44:51;4.22;;;0.88;;
21941;SDS011;11135;54.192;15.670;2023-02-05T00:47:58;3.17;;;1.00;;
21941;SDS011;11135;54.192;15.670;2023-02-05T00:51:04;2.67;;;0.98;;
21941;SDS011;11135;54.192;15.670;2023-02-05T00:54:11;1.73;;;0.95;;
21941;SDS011;11135;54.192;15.670;2023-02-05T00:57:27;2.13;;;0.93;;
21941;SDS011;11135;54.192;15.670;2023-02-05T01:00:35;3.38;;;1.00;;
21941;SDS011;11135;54.192;15.670;2023-02-05T01:03:42;2.60;;;1.40;;
21941;SDS011;11135;54.192;15.670;2023-02-05T01:06:49;3.22;;;1.08;;
21941;SDS011;11135;54.192;15.670;2023-02-05T01:09:57;3.65;;;0.90;;
21941;SDS011;11135;54.192;15.670;2023-02-05T01:13:10;2.85;;;1.10;;
21941;SDS011;11135;54.192;15.670;2023-02-05T01:16:18;3.10;;;1.33;;
21941;SDS011;11135;54.192;15.670;2023-02-05T01:19:28;5.72;;;1.10;;
21941;SDS011;11135;54.192;15.670;2023-02-05T01:22:34;3.33;;;1.40;;
21941;SDS011;11135;54.192;15.670;2023-02-05T01:25:41;4.85;;;1.42;;
21941;SDS011;11135;54.192;15.670;2023-02-05T01:28:52;4.95;;;1.30;;
21941;SDS011;11135;54.192;15.670;2023-02-05T01:31:58;4.70;;;1.42;;
21941;SDS011;11135;54.192;15.670;2023-02-05T01:35:05;3.13;;;1.55;;
21941;SDS011;11135;54.192;15.670;2023-02-05T01:38:15;2.20;;;1.27;;
21941;SDS011;11135;54.192;15.670;2023-02-05T01:41:20;3.53;;;1.40;;
21941;SDS011;11135;54.192;15.670;2023-02-05T01:44:30;2.10;;;1.23;;
21941;SDS011;11135;54.192;15.670;2023-02-05T01:47:43;4.85;;;1.30;;
21941;SDS011;11135;54.192;15.670;2023-02-05T01:50:52;4.18;;;1.30;;
21941;SDS011;11135;54.192;15.670;2023-02-05T01:53:57;4.07;;;0.82;;
21941;SDS011;11135;54.192;15.670;2023-02-05T01:57:04;5.40;;;1.45;;
21941;SDS011;11135;54.192;15.670;2023-02-05T02:00:17;5.40;;;2.08;;
21941;SDS011;11135;54.192;15.670;2023-02-05T02:03:22;3.50;;;1.30;;
21941;SDS011;11135;54.192;15.670;2023-02-05T02:06:30;4.47;;;1.20;;
21941;SDS011;11135;54.192;15.670;2023-02-05T02:09:37;4.35;;;1.48;;
21941;SDS011;11135;54.192;15.670;2023-02-05T02:12:44;3.47;;;1.48;;
21941;SDS011;11135;54.192;15.670;2023-02-05T02:15:55;3.45;;;1.20;;
21941;SDS011;11135;54.192;15.670;2023-02-05T02:19:01;2.92;;;1.20;;
21941;SDS011;11135;54.192;15.670;2023-02-05T02:22:17;4.40;;;1.17;;
21941;SDS011;11135;54.192;15.670;2023-02-05T02:25:45;3.83;;;1.27;;
21941;SDS011;11135;54.192;15.670;2023-02-05T02:28:57;3.15;;;1.23;;
21941;SDS011;11135;54.192;15.670;2023-02-05T02:32:05;2.72;;;1.38;;
21941;SDS011;11135;54.192;15.670;2023-02-05T02:35:14;3.85;;;1.50;;
21941;SDS011;11135;54.192;15.670;2023-02-05T02:38:25;4.35;;;1.65;;
21941;SDS011;11135;54.192;15.670;2023-02-05T02:41:35;4.68;;;1.35;;
21941;SDS011;11135;54.192;15.670;2023-02-05T02:44:45;5.43;;;1.20;;
21941;SDS011;11135;54.192;15.670;2023-02-05T02:47:53;6.22;;;1.60;;
21941;SDS011;11135;54.192;15.670;2023-02-05T02:51:00;4.80;;;1.33;;
21941;SDS011;11135;54.192;15.670;2023-02-05T02:54:08;3.00;;;1.42;;
21941;SDS011;11135;54.192;15.670;2023-02-05T02:57:24;2.85;;;1.30;;
21941;SDS011;11135;54.192;15.670;2023-02-05T03:00:34;2.75;;;1.25;;
21941;SDS011;11135;54.192;15.670;2023-02-05T03:03:44;4.80;;;1.35;;
21941;SDS011;11135;54.192;15.670;2023-02-05T03:06:52;3.90;;;1.33;;
21941;SDS011;11135;54.192;15.670;2023-02-05T03:09:59;4.00;;;1.30;;
21941;SDS011;11135;54.192;15.670;2023-02-05T03:13:08;4.05;;;1.30;;
21941;SDS011;11135;54.192;15.670;2023-02-05T03:16:17;6.45;;;1.50;;
21941;SDS011;11135;54.192;15.670;2023-02-05T03:19:28;3.55;;;1.38;;
21941;SDS011;11135;54.192;15.670;2023-02-05T03:22:35;4.05;;;1.23;;
21941;SDS011;11135;54.192;15.670;2023-02-05T03:25:44;3.33;;;1.17;;
21941;SDS011;11135;54.192;15.670;2023-02-05T03:28:52;4.55;;;1.30;;
21941;SDS011;11135;54.192;15.670;2023-02-05T03:32:04;2.75;;;1.20;;
21941;SDS011;11135;54.192;15.670;2023-02-05T03:35:18;5.30;;;2.28;;
21941;SDS011;11135;54.192;15.670;2023-02-05T03:38:29;2.88;;;2.08;;
21941;SDS011;11135;54.192;15.670;2023-02-05T03:41:40;5.18;;;2.70;;
21941;SDS011;11135;54.192;15.670;2023-02-05T03:45:12;6.82;;;2.55;;
21941;SDS011;11135;54.192;15.670;2023-02-05T03:48:27;6.85;;;3.42;;
21941;SDS011;11135;54.192;15.670;2023-02-05T03:51:38;9.35;;;3.92;;
21941;SDS011;11135;54.192;15.670;2023-02-05T03:54:44;9.60;;;5.88;;
21941;SDS011;11135;54.192;15.670;2023-02-05T03:57:54;9.15;;;4.82;;
21941;SDS011;11135;54.192;15.670;2023-02-05T04:01:04;8.73;;;4.00;;
21941;SDS011;11135;54.192;15.670;2023-02-05T04:04:15;4.57;;;2.15;;
21941;SDS011;11135;54.192;15.670;2023-02-05T04:07:20;5.43;;;1.92;;
21941;SDS011;11135;54.192;15.670;2023-02-05T04:10:26;4.70;;;1.95;;
21941;SDS011;11135;54.192;15.670;2023-02-05T04:13:34;5.38;;;2.05;;
21941;SDS011;11135;54.192;15.670;2023-02-05T04:16:41;4.10;;;1.67;;
21941;SDS011;11135;54.192;15.670;2023-02-05T04:19:51;5.60;;;2.30;;
21941;SDS011;11135;54.192;15.670;2023-02-05T04:22:59;3.67;;;1.90;;
21941;SDS011;11135;54.192;15.670;2023-02-05T04:26:07;5.55;;;1.40;;
21941;SDS011;11135;54.192;15.670;2023-02-05T04:29:13;3.40;;;1.30;;
21941;SDS011;11135;54.192;15.670;2023-02-05T04:32:22;3.55;;;1.30;;
21941;SDS011;11135;54.192;15.670;2023-02-05T04:35:33;3.55;;;1.92;;
21941;SDS011;11135;54.192;15.670;2023-02-05T04:38:39;5.15;;;1.80;;
21941;SDS011;11135;54.192;15.670;2023-02-05T04:41:44;4.88;;;1.50;;
21941;SDS011;11135;54.192;15.670;2023-02-05T04:44:50;4.05;;;1.65;;
21941;SDS011;11135;54.192;15.670;2023-02-05T04:47:55;5.60;;;1.35;;
21941;SDS011;11135;54.192;15.670;2023-02-05T04:51:09;3.17;;;1.50;;
21941;SDS011;11135;54.192;15.670;2023-02-05T04:54:15;3.22;;;1.40;;
21941;SDS011;11135;54.192;15.670;2023-02-05T04:57:25;4.85;;;1.42;;
21941;SDS011;11135;54.192;15.670;2023-02-05T05:00:48;4.22;;;1.33;;
21941;SDS011;11135;54.192;15.670;2023-02-05T05:03:53;2.13;;;1.40;;
21941;SDS011;11135;54.192;15.670;2023-02-05T05:07:02;3.38;;;1.40;;
21941;SDS011;11135;54.192;15.670;2023-02-05T05:10:07;4.47;;;1.25;;
21941;SDS011;11135;54.192;15.670;2023-02-05T05:13:13;3.53;;;1.80;;
21941;SDS011;11135;54.192;15.670;2023-02-05T05:16:20;3.35;;;1.52;;
21941;SDS011;11135;54.192;15.670;2023-02-05T05:19:28;5.13;;;1.30;;
21941;SDS011;11135;54.192;15.670;2023-02-05T05:22:37;4.40;;;1.52;;
21941;SDS011;11135;54.192;15.670;2023-02-05T05:25:46;4.38;;;1.38;;
21941;SDS011;11135;54.192;15.670;2023-02-05T05:28:54;3.47;;;1.50;;
21941;SDS011;11135;54.192;15.670;2023-02-05T05:31:59;5.35;;;1.40;;
21941;SDS011;11135;54.192;15.670;2023-02-05T05:35:05;4.18;;;1.58;;
21941;SDS011;11135;54.192;15.670;2023-02-05T05:38:13;5.97;;;1.50;;
21941;SDS011;11135;54.192;15.670;2023-02-05T05:41:20;4.78;;;1.30;;
21941;SDS011;11135;54.192;15.670;2023-02-05T05:44:38;4.03;;;1.30;;
21941;SDS011;11135;54.192;15.670;2023-02-05T05:47:44;1.92;;;1.10;;
21941;SDS011;11135;54.192;15.670;2023-02-05T05:50:52;4.50;;;1.30;;
21941;SDS011;11135;54.192;15.670;2023-02-05T05:54:02;3.60;;;1.40;;
21941;SDS011;11135;54.192;15.670;2023-02-05T05:57:07;4.03;;;1.45;;
21941;SDS011;11135;54.192;15.670;2023-02-05T06:00:13;5.43;;;1.70;;
21941;SDS011;11135;54.192;15.670;2023-02-05T06:03:19;3.72;;;1.25;;
21941;SDS011;11135;54.192;15.670;2023-02-05T06:06:24;3.22;;;1.30;;
21941;SDS011;11135;54.192;15.670;2023-02-05T06:09:33;4.38;;;1.73;;
21941;SDS011;11135;54.192;15.670;2023-02-05T06:12:43;4.30;;;1.55;;
21941;SDS011;11135;54.192;15.670;2023-02-05T06:15:52;2.83;;;1.35;;
21941;SDS011;11135;54.192;15.670;2023-02-05T06:18:58;2.58;;;1.30;;
21941;SDS011;11135;54.192;15.670;2023-02-05T06:22:08;3.97;;;1.75;;
21941;SDS011;11135;54.192;15.670;2023-02-05T06:25:18;4.72;;;1.50;;
21941;SDS011;11135;54.192;15.670;2023-02-05T06:28:26;5.03;;;1.80;;
21941;SDS011;11135;54.192;15.670;2023-02-05T06:31:33;4.68;;;1.52;;
21941;SDS011;11135;54.192;15.670;2023-02-05T06:34:41;2.75;;;1.45;;
21941;SDS011;11135;54.192;15.670;2023-02-05T06:37:48;3.50;;;1.30;;
21941;SDS011;11135;54.192;15.670;2023-02-05T06:40:59;3.97;;;1.70;;
21941;SDS011;11135;54.192;15.670;2023-02-05T06:44:04;4.53;;;1.48;;
21941;SDS011;11135;54.192;15.670;2023-02-05T06:47:09;3.60;;;1.13;;
21941;SDS011;11135;54.192;15.670;2023-02-05T06:50:15;4.93;;;1.85;;
21941;SDS011;11135;54.192;15.670;2023-02-05T06:53:23;2.65;;;1.23;;
21941;SDS011;11135;54.192;15.670;2023-02-05T06:56:31;4.03;;;1.30;;
21941;SDS011;11135;54.192;15.670;2023-02-05T06:59:38;3.38;;;1.48;;
21941;SDS011;11135;54.192;15.670;2023-02-05T07:02:44;5.22;;;1.40;;
21941;SDS011;11135;54.192;15.670;2023-02-05T07:05:54;4.07;;;1.75;;
21941;SDS011;11135;54.192;15.670;2023-02-05T07:08:59;5.70;;;1.88;;
21941;SDS011;11135;54.192;15.670;2023-02-05T07:12:09;3.35;;;1.45;;
21941;SDS011;11135;54.192;15.670;2023-02-05T07:15:15;4.43;;;1.73;;
21941;SDS011;11135;54.192;15.670;2023-02-05T07:18:21;3.47;;;1.80;;
21941;SDS011;11135;54.192;15.670;2023-02-05T07:21:27;6.40;;;1.92;;
21941;SDS011;11135;54.192;15.670;2023-02-05T07:24:35;3.97;;;1.65;;
21941;SDS011;11135;54.192;15.670;2023-02-05T07:27:45;4.80;;;1.75;;
21941;SDS011;11135;54.192;15.670;2023-02-05T07:30:54;2.92;;;1.45;;
21941;SDS011;11135;54.192;15.670;2023-02-05T07:34:03;4.40;;;2.17;;
21941;SDS011;11135;54.192;15.670;2023-02-05T07:37:10;5.97;;;2.03;;
21941;SDS011;11135;54.192;15.670;2023-02-05T07:40:17;4.22;;;2.00;;
21941;SDS011;11135;54.192;15.670;2023-02-05T07:43:26;3.78;;;1.90;;
21941;SDS011;11135;54.192;15.670;2023-02-05T07:46:36;4.00;;;2.08;;
21941;SDS011;11135;54.192;15.670;2023-02-05T07:49:42;5.88;;;2.42;;
21941;SDS011;11135;54.192;15.670;2023-02-05T07:52:47;6.25;;;2.58;;
21941;SDS011;11135;54.192;15.670;2023-02-05T07:55:55;5.18;;;2.80;;
21941;SDS011;11135;54.192;15.670;2023-02-05T07:59:03;5.85;;;2.22;;
21941;SDS011;11135;54.192;15.670;2023-02-05T08:02:14;4.18;;;1.92;;
21941;SDS011;11135;54.192;15.670;2023-02-05T08:05:20;5.25;;;2.20;;
21941;SDS011;11135;54.192;15.670;2023-02-05T08:08:25;6.43;;;2.83;;
21941;SDS011;11135;54.192;15.670;2023-02-05T08:11:33;6.10;;;2.30;;
21941;SDS011;11135;54.192;15.670;2023-02-05T08:14:41;5.78;;;2.75;;
21941;SDS011;11135;54.192;15.670;2023-02-05T08:17:47;6.82;;;2.42;;
21941;SDS011;11135;54.192;15.670;2023-02-05T08:20:53;5.53;;;2.17;;
21941;SDS011;11135;54.192;15.670;2023-02-05T08:23:58;6.13;;;2.50;;
21941;SDS011;11135;54.192;15.670;2023-02-05T08:27:05;6.97;;;2.28;;
21941;SDS011;11135;54.192;15.670;2023-02-05T08:30:16;4.88;;;1.88;;
21941;SDS011;11135;54.192;15.670;2023-02-05T08:33:23;6.10;;;1.88;;
21941;SDS011;11135;54.192;15.670;2023-02-05T08:36:31;5.97;;;1.88;;
21941;SDS011;11135;54.192;15.670;2023-02-05T08:39:36;6.72;;;2.22;;
21941;SDS011;11135;54.192;15.670;2023-02-05T08:42:42;5.90;;;1.75;;
21941;SDS011;11135;54.192;15.670;2023-02-05T08:45:52;8.50;;;2.40;;
21941;SDS011;11135;54.192;15.670;2023-02-05T08:48:57;4.10;;;1.70;;
21941;SDS011;11135;54.192;15.670;2023-02-05T08:52:03;5.13;;;2.50;;
21941;SDS011;11135;54.192;15.670;2023-02-05T08:55:08;5.22;;;2.58;;
21941;SDS011;11135;54.192;15.670;2023-02-05T08:58:16;4.55;;;1.95;;
21941;SDS011;11135;54.192;15.670;2023-02-05T09:01:25;4.63;;;2.15;;
21941;SDS011;11135;54.192;15.670;2023-02-05T09:04:31;5.72;;;2.20;;
21941;SDS011;11135;54.192;15.670;2023-02-05T09:07:37;5.97;;;2.60;;
21941;SDS011;11135;54.192;15.670;2023-02-05T09:10:43;6.85;;;2.22;;
21941;SDS011;11135;54.192;15.670;2023-02-05T13:02:37;3.55;;;1.60;;
21941;SDS011;11135;54.192;15.670;2023-02-05T13:16:20;2.63;;;1.30;;
21941;SDS011;11135;54.192;15.670;2023-02-05T13:19:29;3.70;;;1.45;;
21941;SDS011;11135;54.192;15.670;2023-02-05T13:22:45;3.75;;;1.63;;
21941;SDS011;11135;54.192;15.670;2023-02-05T13:26:06;4.03;;;1.15;;
21941;SDS011;11135;54.192;15.670;2023-02-05T13:29:25;3.22;;;1.02;;
21941;SDS011;11135;54.192;15.670;2023-02-05T13:32:32;3.17;;;1.17;;
21941;SDS011;11135;54.192;15.670;2023-02-05T13:39:14;3.00;;;1.20;;
21941;SDS011;11135;54.192;15.670;2023-02-05T13:46:15;1.38;;;0.77;;
21941;SDS011;11135;54.192;15.670;2023-02-05T13:49:36;3.63;;;1.52;;
21941;SDS011;11135;54.192;15.670;2023-02-05T13:52:56;3.03;;;1.23;;
21941;SDS011;11135;54.192;15.670;2023-02-05T13:56:22;2.13;;;0.75;;
21941;SDS011;11135;54.192;15.670;2023-02-05T13:59:33;1.90;;;1.00;;
21941;SDS011;11135;54.192;15.670;2023-02-05T14:02:40;2.78;;;0.95;;
21941;SDS011;11135;54.192;15.670;2023-02-05T14:05:47;2.42;;;0.93;;
21941;SDS011;11135;54.192;15.670;2023-02-05T14:08:58;2.38;;;1.20;;
21941;SDS011;11135;54.192;15.670;2023-02-05T14:12:08;3.10;;;1.15;;
21941;SDS011;11135;54.192;15.670;2023-02-05T14:15:24;6.53;;;1.50;;
21941;SDS011;11135;54.192;15.670;2023-02-05T14:18:46;2.37;;;1.13;;
21941;SDS011;11135;54.192;15.670;2023-02-05T14:21:59;5.07;;;1.45;;
21941;SDS011;11135;54.192;15.670;2023-02-05T14:28:35;4.90;;;1.90;;
21941;SDS011;11135;54.192;15.670;2023-02-05T14:31:44;5.15;;;2.30;;
21941;SDS011;11135;54.192;15.670;2023-02-05T14:34:57;5.00;;;1.70;;
21941;SDS011;11135;54.192;15.670;2023-02-05T14:38:14;2.40;;;1.48;;
21941;SDS011;11135;54.192;15.670;2023-02-05T14:41:24;3.88;;;1.75;;
21941;SDS011;11135;54.192;15.670;2023-02-05T14:44:38;4.75;;;1.95;;
21941;SDS011;11135;54.192;15.670;2023-02-05T14:47:47;3.00;;;1.40;;
21941;SDS011;11135;54.192;15.670;2023-02-05T14:51:02;4.40;;;1.85;;
21941;SDS011;11135;54.192;15.670;2023-02-05T14:54:13;3.83;;;1.67;;
21941;SDS011;11135;54.192;15.670;2023-02-05T14:57:23;3.53;;;1.40;;
21941;SDS011;11135;54.192;15.670;2023-02-05T15:00:34;4.53;;;1.75;;
21941;SDS011;11135;54.192;15.670;2023-02-05T15:03:41;6.28;;;1.80;;
21941;SDS011;11135;54.192;15.670;2023-02-05T15:06:49;4.13;;;1.80;;
21941;SDS011;11135;54.192;15.670;2023-02-05T15:09:58;5.35;;;1.98;;
21941;SDS011;11135;54.192;15.670;2023-02-05T15:13:08;3.85;;;1.92;;
21941;SDS011;11135;54.192;15.670;2023-02-05T15:19:43;4.95;;;1.70;;
21941;SDS011;11135;54.192;15.670;2023-02-05T15:22:51;4.82;;;1.83;;
21941;SDS011;11135;54.192;15.670;2023-02-05T15:25:59;5.05;;;2.28;;
21941;SDS011;11135;54.192;15.670;2023-02-05T15:29:06;5.32;;;1.55;;
21941;SDS011;11135;54.192;15.670;2023-02-05T15:32:17;6.35;;;2.15;;
21941;SDS011;11135;54.192;15.670;2023-02-05T15:35:25;3.33;;;1.63;;
21941;SDS011;11135;54.192;15.670;2023-02-05T15:38:33;3.95;;;1.70;;
21941;SDS011;11135;54.192;15.670;2023-02-05T15:41:44;3.47;;;1.85;;
21941;SDS011;11135;54.192;15.670;2023-02-05T15:44:50;5.57;;;2.05;;
21941;SDS011;11135;54.192;15.670;2023-02-05T15:47:58;8.48;;;2.28;;
21941;SDS011;11135;54.192;15.670;2023-02-05T15:51:12;4.88;;;2.10;;
21941;SDS011;11135;54.192;15.670;2023-02-05T15:54:18;3.92;;;1.80;;
21941;SDS011;11135;54.192;15.670;2023-02-05T15:57:26;5.00;;;2.03;;
21941;SDS011;11135;54.192;15.670;2023-02-05T16:00:35;5.88;;;2.50;;
21941;SDS011;11135;54.192;15.670;2023-02-05T16:03:43;3.67;;;1.67;;
21941;SDS011;11135;54.192;15.670;2023-02-05T16:06:51;6.88;;;2.20;;
21941;SDS011;11135;54.192;15.670;2023-02-05T16:10:01;5.43;;;2.53;;
21941;SDS011;11135;54.192;15.670;2023-02-05T16:13:11;7.60;;;2.92;;
21941;SDS011;11135;54.192;15.670;2023-02-05T16:16:18;4.73;;;2.30;;
21941;SDS011;11135;54.192;15.670;2023-02-05T16:19:27;5.50;;;2.42;;
21941;SDS011;11135;54.192;15.670;2023-02-05T16:22:38;4.15;;;2.28;;
21941;SDS011;11135;54.192;15.670;2023-02-05T16:25:45;5.10;;;2.22;;
21941;SDS011;11135;54.192;15.670;2023-02-05T16:28:52;3.05;;;1.75;;
21941;SDS011;11135;54.192;15.670;2023-02-05T16:32:04;5.38;;;2.20;;
21941;SDS011;11135;54.192;15.670;2023-02-05T16:35:13;4.60;;;2.40;;
21941;SDS011;11135;54.192;15.670;2023-02-05T16:38:23;6.47;;;2.15;;
21941;SDS011;11135;54.192;15.670;2023-02-05T16:41:32;5.68;;;2.40;;
21941;SDS011;11135;54.192;15.670;2023-02-05T16:44:40;6.18;;;3.03;;
21941;SDS011;11135;54.192;15.670;2023-02-05T16:51:10;7.78;;;3.05;;
21941;SDS011;11135;54.192;15.670;2023-02-05T16:54:35;8.43;;;3.55;;
21941;SDS011;11135;54.192;15.670;2023-02-05T16:57:43;8.02;;;3.67;;
21941;SDS011;11135;54.192;15.670;2023-02-05T17:00:53;8.85;;;4.18;;
21941;SDS011;11135;54.192;15.670;2023-02-05T17:04:00;9.70;;;5.55;;
21941;SDS011;11135;54.192;15.670;2023-02-05T17:07:14;10.77;;;4.85;;
21941;SDS011;11135;54.192;15.670;2023-02-05T17:10:24;9.57;;;4.03;;
21941;SDS011;11135;54.192;15.670;2023-02-05T17:13:37;10.43;;;4.43;;
21941;SDS011;11135;54.192;15.670;2023-02-05T17:16:46;8.98;;;4.45;;
21941;SDS011;11135;54.192;15.670;2023-02-05T17:20:02;10.40;;;5.03;;
21941;SDS011;11135;54.192;15.670;2023-02-05T17:23:08;10.63;;;5.20;;
21941;SDS011;11135;54.192;15.670;2023-02-05T17:26:16;11.98;;;5.57;;
21941;SDS011;11135;54.192;15.670;2023-02-05T17:29:23;12.55;;;4.88;;
21941;SDS011;11135;54.192;15.670;2023-02-05T17:32:30;7.63;;;4.15;;
21941;SDS011;11135;54.192;15.670;2023-02-05T17:35:35;9.07;;;4.32;;
21941;SDS011;11135;54.192;15.670;2023-02-05T17:38:41;10.15;;;4.10;;
21941;SDS011;11135;54.192;15.670;2023-02-05T17:41:53;8.95;;;3.75;;
21941;SDS011;11135;54.192;15.670;2023-02-05T17:45:10;6.78;;;3.42;;
21941;SDS011;11135;54.192;15.670;2023-02-05T17:48:17;10.63;;;4.22;;
21941;SDS011;11135;54.192;15.670;2023-02-05T17:51:23;7.47;;;3.72;;
21941;SDS011;11135;54.192;15.670;2023-02-05T17:54:28;7.65;;;4.35;;
21941;SDS011;11135;54.192;15.670;2023-02-05T17:57:39;11.65;;;4.82;;
21941;SDS011;11135;54.192;15.670;2023-02-05T18:00:46;12.52;;;4.82;;
21941;SDS011;11135;54.192;15.670;2023-02-05T18:03:52;9.32;;;4.57;;
21941;SDS011;11135;54.192;15.670;2023-02-05T18:06:57;10.23;;;4.72;;
21941;SDS011;11135;54.192;15.670;2023-02-05T18:10:03;10.15;;;4.65;;
21941;SDS011;11135;54.192;15.670;2023-02-05T18:13:11;15.27;;;5.53;;
21941;SDS011;11135;54.192;15.670;2023-02-05T18:16:20;11.68;;;5.72;;
21941;SDS011;11135;54.192;15.670;2023-02-05T18:19:26;14.02;;;6.25;;
21941;SDS011;11135;54.192;15.670;2023-02-05T18:22:31;8.85;;;4.75;;
21941;SDS011;11135;54.192;15.670;2023-02-05T18:25:37;11.48;;;5.10;;
21941;SDS011;11135;54.192;15.670;2023-02-05T18:28:44;10.82;;;6.00;;
21941;SDS011;11135;54.192;15.670;2023-02-05T18:31:52;11.75;;;6.05;;
21941;SDS011;11135;54.192;15.670;2023-02-05T18:34:57;9.88;;;5.18;;
21941;SDS011;11135;54.192;15.670;2023-02-05T18:38:03;14.43;;;5.35;;
21941;SDS011;11135;54.192;15.670;2023-02-05T18:41:09;11.73;;;5.32;;
21941;SDS011;11135;54.192;15.670;2023-02-05T18:44:17;14.00;;;7.28;;
21941;SDS011;11135;54.192;15.670;2023-02-05T18:47:23;15.30;;;6.60;;
21941;SDS011;11135;54.192;15.670;2023-02-05T18:50:28;11.40;;;5.70;;
21941;SDS011;11135;54.192;15.670;2023-02-05T18:53:34;14.32;;;5.90;;
21941;SDS011;11135;54.192;15.670;2023-02-05T18:56:39;13.52;;;6.28;;
21941;SDS011;11135;54.192;15.670;2023-02-05T18:59:47;11.98;;;5.60;;
21941;SDS011;11135;54.192;15.670;2023-02-05T19:02:52;10.10;;;5.45;;
21941;SDS011;11135;54.192;15.670;2023-02-05T19:06:01;11.80;;;4.68;;
21941;SDS011;11135;54.192;15.670;2023-02-05T19:09:06;10.35;;;5.03;;
21941;SDS011;11135;54.192;15.670;2023-02-05T19:12:14;10.98;;;5.93;;
21941;SDS011;11135;54.192;15.670;2023-02-05T19:15:22;11.50;;;4.85;;
21941;SDS011;11135;54.192;15.670;2023-02-05T19:18:27;11.43;;;6.20;;
21941;SDS011;11135;54.192;15.670;2023-02-05T19:21:32;11.07;;;5.82;;
21941;SDS011;11135;54.192;15.670;2023-02-05T19:24:38;17.55;;;6.07;;
21941;SDS011;11135;54.192;15.670;2023-02-05T19:27:44;7.43;;;4.07;;
21941;SDS011;11135;54.192;15.670;2023-02-05T19:30:53;13.40;;;6.45;;
21941;SDS011;11135;54.192;15.670;2023-02-05T19:33:58;11.38;;;6.90;;
21941;SDS011;11135;54.192;15.670;2023-02-05T19:37:04;13.95;;;6.68;;
21941;SDS011;11135;54.192;15.670;2023-02-05T19:40:12;16.77;;;6.97;;
21941;SDS011;11135;54.192;15.670;2023-02-05T19:43:19;15.23;;;6.65;;
21941;SDS011;11135;54.192;15.670;2023-02-05T19:46:27;13.63;;;6.97;;
21941;SDS011;11135;54.192;15.670;2023-02-05T19:49:36;12.70;;;5.50;;
21941;SDS011;11135;54.192;15.670;2023-02-05T19:52:41;14.43;;;6.95;;
21941;SDS011;11135;54.192;15.670;2023-02-05T19:55:47;12.73;;;6.65;;
21941;SDS011;11135;54.192;15.670;2023-02-05T19:58:52;13.20;;;6.35;;
21941;SDS011;11135;54.192;15.670;2023-02-05T20:02:00;11.80;;;5.72;;
21941;SDS011;11135;54.192;15.670;2023-02-05T20:05:06;14.57;;;6.72;;
21941;SDS011;11135;54.192;15.670;2023-02-05T20:08:13;13.13;;;7.13;;
21941;SDS011;11135;54.192;15.670;2023-02-05T20:11:18;17.60;;;7.45;;
21941;SDS011;11135;54.192;15.670;2023-02-05T20:14:25;14.68;;;6.47;;
21941;SDS011;11135;54.192;15.670;2023-02-05T20:17:38;15.38;;;6.85;;
21941;SDS011;11135;54.192;15.670;2023-02-05T20:20:44;14.52;;;7.85;;
21941;SDS011;11135;54.192;15.670;2023-02-05T20:23:49;13.40;;;6.80;;
21941;SDS011;11135;54.192;15.670;2023-02-05T20:26:55;16.10;;;7.43;;
21941;SDS011;11135;54.192;15.670;2023-02-05T20:29:59;16.08;;;7.38;;
21941;SDS011;11135;54.192;15.670;2023-02-05T20:33:20;14.27;;;7.15;;
21941;SDS011;11135;54.192;15.670;2023-02-05T20:36:26;19.60;;;8.10;;
21941;SDS011;11135;54.192;15.670;2023-02-05T20:39:31;14.02;;;8.10;;
21941;SDS011;11135;54.192;15.670;2023-02-05T20:42:40;14.25;;;6.50;;
21941;SDS011;11135;54.192;15.670;2023-02-05T20:45:46;17.40;;;7.07;;
21941;SDS011;11135;54.192;15.670;2023-02-05T20:48:54;15.52;;;7.22;;
21941;SDS011;11135;54.192;15.670;2023-02-05T20:51:59;14.75;;;7.20;;
21941;SDS011;11135;54.192;15.670;2023-02-05T20:55:05;14.45;;;7.60;;
21941;SDS011;11135;54.192;15.670;2023-02-05T20:58:11;18.48;;;8.80;;
21941;SDS011;11135;54.192;15.670;2023-02-05T21:01:19;15.60;;;8.07;;
21941;SDS011;11135;54.192;15.670;2023-02-05T21:04:27;17.50;;;7.85;;
21941;SDS011;11135;54.192;15.670;2023-02-05T21:07:34;17.98;;;8.65;;
21941;SDS011;11135;54.192;15.670;2023-02-05T21:10:41;16.77;;;7.50;;
21941;SDS011;11135;54.192;15.670;2023-02-05T21:13:49;19.02;;;7.65;;
21941;SDS011;11135;54.192;15.670;2023-02-05T21:16:55;17.33;;;7.78;;
21941;SDS011;11135;54.192;15.670;2023-02-05T21:20:03;16.58;;;7.20;;
21941;SDS011;11135;54.192;15.670;2023-02-05T21:23:08;17.83;;;7.38;;
21941;SDS011;11135;54.192;15.670;2023-02-05T21:26:17;14.10;;;7.13;;
21941;SDS011;11135;54.192;15.670;2023-02-05T21:29:22;17.35;;;6.93;;
21941;SDS011;11135;54.192;15.670;2023-02-05T21:32:27;16.63;;;7.95;;
21941;SDS011;11135;54.192;15.670;2023-02-05T21:35:38;11.88;;;6.40;;
21941;SDS011;11135;54.192;15.670;2023-02-05T21:38:45;13.48;;;6.32;;
21941;SDS011;11135;54.192;15.670;2023-02-05T21:41:51;15.38;;;7.65;;
21941;SDS011;11135;54.192;15.670;2023-02-05T21:44:56;12.27;;;5.88;;
21941;SDS011;11135;54.192;15.670;2023-02-05T21:48:01;17.33;;;8.15;;
21941;SDS011;11135;54.192;15.670;2023-02-05T21:51:12;17.30;;;6.78;;
21941;SDS011;11135;54.192;15.670;2023-02-05T21:54:18;12.35;;;7.18;;
21941;SDS011;11135;54.192;15.670;2023-02-05T21:57:26;11.18;;;6.55;;
21941;SDS011;11135;54.192;15.670;2023-02-05T22:00:35;12.10;;;6.53;;
21941;SDS011;11135;54.192;15.670;2023-02-05T22:03:46;13.13;;;6.13;;
21941;SDS011;11135;54.192;15.670;2023-02-05T22:06:54;12.15;;;6.28;;
21941;SDS011;11135;54.192;15.670;2023-02-05T22:10:03;9.27;;;5.22;;
21941;SDS011;11135;54.192;15.670;2023-02-05T22:13:08;15.45;;;7.45;;
21941;SDS011;11135;54.192;15.670;2023-02-05T22:16:15;11.95;;;5.57;;
21941;SDS011;11135;54.192;15.670;2023-02-05T22:19:20;9.32;;;4.88;;
21941;SDS011;11135;54.192;15.670;2023-02-05T22:22:29;9.73;;;4.45;;
21941;SDS011;11135;54.192;15.670;2023-02-05T22:25:34;10.68;;;4.70;;
21941;SDS011;11135;54.192;15.670;2023-02-05T22:28:39;9.43;;;5.35;;
21941;SDS011;11135;54.192;15.670;2023-02-05T22:31:44;12.70;;;6.50;;
21941;SDS011;11135;54.192;15.670;2023-02-05T22:34:52;9.20;;;5.07;;
21941;SDS011;11135;54.192;15.670;2023-02-05T22:38:00;10.82;;;5.20;;
21941;SDS011;11135;54.192;15.670;2023-02-05T22:41:08;11.93;;;4.43;;
21941;SDS011;11135;54.192;15.670;2023-02-05T22:44:13;12.27;;;6.40;;
21941;SDS011;11135;54.192;15.670;2023-02-05T22:47:18;12.13;;;6.18;;
21941;SDS011;11135;54.192;15.670;2023-02-05T22:50:23;10.25;;;5.45;;